sensor_id;sensor_type;location;lat;lon;timestamp;P1;durP1;ratioP1;P2;durP2;ratioP2
12912;SDS011;6524;51.368;11.984;2023-06-26T04:03:29;9.27;;;7.80;;
12912;SDS011;6524;51.368;11.984;2023-06-26T04:08:30;8.95;;;7.57;;
12912;SDS011;6524;51.368;11.984;2023-06-26T04:13:30;10.02;;;8.13;;
12912;SDS011;6524;51.368;11.984;2023-06-26T04:18:31;10.80;;;8.02;;
12912;SDS011;6524;51.368;11.984;2023-06-26T04:23:31;10.43;;;7.45;;
12912;SDS011;6524;51.368;11.984;2023-06-26T04:28:35;10.38;;;8.23;;
12912;SDS011;6524;51.368;11.984;2023-06-26T04:33:35;11.98;;;7.60;;
12912;SDS011;6524;51.368;11.984;2023-06-26T04:38:36;12.13;;;8.45;;
12912;SDS011;6524;51.368;11.984;2023-06-26T04:43:36;11.13;;;8.25;;
12912;SDS011;6524;51.368;11.984;2023-06-26T04:48:38;12.32;;;8.05;;
12912;SDS011;6524;51.368;11.984;2023-06-26T04:53:38;11.90;;;8.47;;
12912;SDS011;6524;51.368;11.984;2023-06-26T04:58:38;9.70;;;8.70;;
12912;SDS011;6524;51.368;11.984;2023-06-26T05:03:39;11.00;;;8.32;;
12912;SDS011;6524;51.368;11.984;2023-06-26T05:08:41;15.05;;;9.13;;
12912;SDS011;6524;51.368;11.984;2023-06-26T05:13:42;10.48;;;8.32;;
12912;SDS011;6524;51.368;11.984;2023-06-26T05:18:42;9.10;;;8.02;;
12912;SDS011;6524;51.368;11.984;2023-06-26T05:23:43;12.15;;;8.43;;
12912;SDS011;6524;51.368;11.984;2023-06-26T05:28:45;11.00;;;9.38;;
12912;SDS011;6524;51.368;11.984;2023-06-26T05:33:48;13.60;;;9.23;;
12912;SDS011;6524;51.368;11.984;2023-06-26T05:38:49;12.57;;;8.75;;
12912;SDS011;6524;51.368;11.984;2023-06-26T05:43:50;11.98;;;9.48;;
12912;SDS011;6524;51.368;11.984;2023-06-26T05:48:54;14.35;;;9.63;;
12912;SDS011;6524;51.368;11.984;2023-06-26T05:53:54;16.27;;;9.00;;
12912;SDS011;6524;51.368;11.984;2023-06-26T05:58:55;9.63;;;8.63;;
12912;SDS011;6524;51.368;11.984;2023-06-26T06:03:57;8.50;;;7.32;;
12912;SDS011;6524;51.368;11.984;2023-06-26T06:08:57;8.18;;;7.35;;
12912;SDS011;6524;51.368;11.984;2023-06-26T06:13:57;10.35;;;8.05;;
12912;SDS011;6524;51.368;11.984;2023-06-26T06:18:59;9.00;;;7.63;;
12912;SDS011;6524;51.368;11.984;2023-06-26T06:24:00;8.93;;;8.03;;
12912;SDS011;6524;51.368;11.984;2023-06-26T06:29:01;8.18;;;7.38;;
12912;SDS011;6524;51.368;11.984;2023-06-26T06:34:01;9.38;;;7.50;;
12912;SDS011;6524;51.368;11.984;2023-06-26T06:39:02;8.70;;;7.43;;
12912;SDS011;6524;51.368;11.984;2023-06-26T06:44:03;8.20;;;7.40;;
12912;SDS011;6524;51.368;11.984;2023-06-26T06:49:04;8.48;;;7.43;;
12912;SDS011;6524;51.368;11.984;2023-06-26T06:54:06;8.85;;;7.63;;
12912;SDS011;6524;51.368;11.984;2023-06-26T06:59:06;7.97;;;7.28;;
12912;SDS011;6524;51.368;11.984;2023-06-26T07:04:07;8.27;;;7.47;;
12912;SDS011;6524;51.368;11.984;2023-06-26T07:09:07;8.23;;;7.28;;
12912;SDS011;6524;51.368;11.984;2023-06-26T07:14:08;8.43;;;7.10;;
12912;SDS011;6524;51.368;11.984;2023-06-26T07:19:09;7.40;;;6.78;;
12912;SDS011;6524;51.368;11.984;2023-06-26T07:24:10;7.07;;;6.47;;
12912;SDS011;6524;51.368;11.984;2023-06-26T07:29:11;7.90;;;7.20;;
12912;SDS011;6524;51.368;11.984;2023-06-26T07:34:11;7.43;;;6.72;;
12912;SDS011;6524;51.368;11.984;2023-06-26T07:39:12;8.70;;;7.90;;
12912;SDS011;6524;51.368;11.984;2023-06-26T07:44:12;8.10;;;7.30;;
12912;SDS011;6524;51.368;11.984;2023-06-26T07:49:14;7.65;;;6.63;;
12912;SDS011;6524;51.368;11.984;2023-06-26T07:54:15;7.18;;;6.53;;
12912;SDS011;6524;51.368;11.984;2023-06-26T07:59:15;7.07;;;6.38;;
12912;SDS011;6524;51.368;11.984;2023-06-26T08:04:17;7.05;;;6.50;;
12912;SDS011;6524;51.368;11.984;2023-06-26T08:09:19;7.05;;;6.38;;
12912;SDS011;6524;51.368;11.984;2023-06-26T08:14:20;7.72;;;6.68;;
12912;SDS011;6524;51.368;11.984;2023-06-26T08:19:21;7.38;;;6.68;;
12912;SDS011;6524;51.368;11.984;2023-06-26T08:24:22;7.07;;;6.40;;
12912;SDS011;6524;51.368;11.984;2023-06-26T08:29:22;7.13;;;6.50;;
12912;SDS011;6524;51.368;11.984;2023-06-26T08:34:24;6.65;;;6.05;;
12912;SDS011;6524;51.368;11.984;2023-06-26T08:39:25;6.72;;;6.22;;
12912;SDS011;6524;51.368;11.984;2023-06-26T08:44:28;7.22;;;6.53;;
12912;SDS011;6524;51.368;11.984;2023-06-26T08:49:43;6.55;;;6.05;;
12912;SDS011;6524;51.368;11.984;2023-06-26T08:54:54;6.70;;;5.97;;
12912;SDS011;6524;51.368;11.984;2023-06-26T08:59:58;7.40;;;6.80;;
12912;SDS011;6524;51.368;11.984;2023-06-26T09:05:08;6.30;;;5.70;;
12912;SDS011;6524;51.368;11.984;2023-06-26T09:10:21;6.50;;;5.90;;
12912;SDS011;6524;51.368;11.984;2023-06-26T09:15:22;6.75;;;5.45;;
12912;SDS011;6524;51.368;11.984;2023-06-26T09:20:27;6.00;;;5.50;;
12912;SDS011;6524;51.368;11.984;2023-06-26T09:25:28;7.07;;;6.38;;
12912;SDS011;6524;51.368;11.984;2023-06-26T09:30:33;6.00;;;5.50;;
12912;SDS011;6524;51.368;11.984;2023-06-26T09:35:37;6.70;;;6.10;;
12912;SDS011;6524;51.368;11.984;2023-06-26T09:40:39;6.35;;;5.38;;
12912;SDS011;6524;51.368;11.984;2023-06-26T09:45:44;6.03;;;5.53;;
12912;SDS011;6524;51.368;11.984;2023-06-26T09:50:46;7.10;;;6.50;;
12912;SDS011;6524;51.368;11.984;2023-06-26T09:55:49;6.30;;;5.80;;
12912;SDS011;6524;51.368;11.984;2023-06-26T10:00:51;6.10;;;5.55;;
12912;SDS011;6524;51.368;11.984;2023-06-26T10:06:07;6.35;;;5.75;;
12912;SDS011;6524;51.368;11.984;2023-06-26T10:11:14;6.20;;;5.60;;
12912;SDS011;6524;51.368;11.984;2023-06-26T10:16:23;6.40;;;5.80;;
12912;SDS011;6524;51.368;11.984;2023-06-26T10:21:29;6.15;;;5.68;;
12912;SDS011;6524;51.368;11.984;2023-06-26T10:26:38;6.10;;;5.50;;
12912;SDS011;6524;51.368;11.984;2023-06-26T10:31:43;6.05;;;5.55;;
12912;SDS011;6524;51.368;11.984;2023-06-26T10:36:47;6.20;;;5.68;;
12912;SDS011;6524;51.368;11.984;2023-06-26T10:42:08;5.97;;;5.38;;
12912;SDS011;6524;51.368;11.984;2023-06-26T10:47:12;6.15;;;5.65;;
12912;SDS011;6524;51.368;11.984;2023-06-26T10:52:39;6.63;;;6.05;;
12912;SDS011;6524;51.368;11.984;2023-06-26T10:57:39;5.95;;;5.45;;
12912;SDS011;6524;51.368;11.984;2023-06-26T11:02:50;6.22;;;5.72;;
12912;SDS011;6524;51.368;11.984;2023-06-26T11:08:08;6.47;;;5.45;;
12912;SDS011;6524;51.368;11.984;2023-06-26T11:13:10;6.57;;;5.78;;
12912;SDS011;6524;51.368;11.984;2023-06-26T11:18:19;6.57;;;6.07;;
12912;SDS011;6524;51.368;11.984;2023-06-26T11:23:23;6.93;;;6.32;;
12912;SDS011;6524;51.368;11.984;2023-06-26T11:28:29;6.60;;;6.10;;
12912;SDS011;6524;51.368;11.984;2023-06-26T11:33:33;7.10;;;6.40;;
12912;SDS011;6524;51.368;11.984;2023-06-26T11:38:39;7.28;;;6.50;;
12912;SDS011;6524;51.368;11.984;2023-06-26T11:43:40;6.78;;;6.25;;
12912;SDS011;6524;51.368;11.984;2023-06-26T11:48:44;7.40;;;6.70;;
12912;SDS011;6524;51.368;11.984;2023-06-26T11:53:47;7.65;;;6.97;;
12912;SDS011;6524;51.368;11.984;2023-06-26T11:58:55;7.15;;;6.55;;
12912;SDS011;6524;51.368;11.984;2023-06-26T12:04:07;6.85;;;6.25;;
12912;SDS011;6524;51.368;11.984;2023-06-26T12:09:09;7.30;;;6.28;;
12912;SDS011;6524;51.368;11.984;2023-06-26T12:14:11;6.78;;;6.25;;
12912;SDS011;6524;51.368;11.984;2023-06-26T12:19:16;7.30;;;6.70;;
12912;SDS011;6524;51.368;11.984;2023-06-26T12:24:18;7.07;;;6.47;;
12912;SDS011;6524;51.368;11.984;2023-06-26T12:29:40;6.63;;;6.03;;
12912;SDS011;6524;51.368;11.984;2023-06-26T12:34:46;7.65;;;7.03;;
12912;SDS011;6524;51.368;11.984;2023-06-26T12:39:49;6.53;;;5.90;;
12912;SDS011;6524;51.368;11.984;2023-06-26T12:44:55;6.68;;;6.18;;
12912;SDS011;6524;51.368;11.984;2023-06-26T12:49:58;7.38;;;6.28;;
12912;SDS011;6524;51.368;11.984;2023-06-26T12:55:07;6.68;;;6.07;;
12912;SDS011;6524;51.368;11.984;2023-06-26T13:00:09;7.00;;;6.30;;
12912;SDS011;6524;51.368;11.984;2023-06-26T13:05:10;6.68;;;6.10;;
12912;SDS011;6524;51.368;11.984;2023-06-26T13:10:11;7.68;;;7.07;;
12912;SDS011;6524;51.368;11.984;2023-06-26T13:15:11;6.88;;;6.28;;
12912;SDS011;6524;51.368;11.984;2023-06-26T13:20:12;6.70;;;6.15;;
12912;SDS011;6524;51.368;11.984;2023-06-26T13:25:14;6.80;;;6.20;;
12912;SDS011;6524;51.368;11.984;2023-06-26T13:30:14;6.78;;;6.28;;
12912;SDS011;6524;51.368;11.984;2023-06-26T13:35:16;7.80;;;7.05;;
12912;SDS011;6524;51.368;11.984;2023-06-26T13:40:17;24.38;;;8.10;;
12912;SDS011;6524;51.368;11.984;2023-06-26T13:45:18;11.15;;;7.22;;
12912;SDS011;6524;51.368;11.984;2023-06-26T13:50:18;14.57;;;10.15;;
12912;SDS011;6524;51.368;11.984;2023-06-26T13:55:19;11.60;;;8.90;;
12912;SDS011;6524;51.368;11.984;2023-06-26T14:00:22;10.82;;;8.55;;
12912;SDS011;6524;51.368;11.984;2023-06-26T14:05:23;12.57;;;8.52;;
12912;SDS011;6524;51.368;11.984;2023-06-26T14:10:23;10.45;;;8.55;;
12912;SDS011;6524;51.368;11.984;2023-06-26T14:15:25;8.57;;;7.78;;
12912;SDS011;6524;51.368;11.984;2023-06-26T14:20:26;9.80;;;8.35;;
12912;SDS011;6524;51.368;11.984;2023-06-26T14:25:28;10.75;;;7.85;;
12912;SDS011;6524;51.368;11.984;2023-06-26T14:30:28;9.50;;;7.60;;
12912;SDS011;6524;51.368;11.984;2023-06-26T14:35:29;8.70;;;7.82;;
12912;SDS011;6524;51.368;11.984;2023-06-26T14:40:29;9.85;;;8.18;;
12912;SDS011;6524;51.368;11.984;2023-06-26T14:45:33;11.20;;;8.52;;
12912;SDS011;6524;51.368;11.984;2023-06-26T14:50:33;9.25;;;8.30;;
12912;SDS011;6524;51.368;11.984;2023-06-26T14:55:34;8.48;;;7.68;;
12912;SDS011;6524;51.368;11.984;2023-06-26T15:00:34;7.90;;;6.70;;
12912;SDS011;6524;51.368;11.984;2023-06-26T15:05:35;7.60;;;6.90;;
12912;SDS011;6524;51.368;11.984;2023-06-26T15:10:35;8.95;;;7.30;;
12912;SDS011;6524;51.368;11.984;2023-06-26T15:15:36;9.35;;;7.85;;
12912;SDS011;6524;51.368;11.984;2023-06-26T15:20:37;9.23;;;8.32;;
12912;SDS011;6524;51.368;11.984;2023-06-26T15:25:38;9.63;;;8.63;;
12912;SDS011;6524;51.368;11.984;2023-06-26T15:30:39;9.10;;;8.23;;
12912;SDS011;6524;51.368;11.984;2023-06-26T15:35:39;9.52;;;8.55;;
12912;SDS011;6524;51.368;11.984;2023-06-26T15:40:40;9.57;;;8.30;;
12912;SDS011;6524;51.368;11.984;2023-06-26T15:45:41;9.70;;;8.65;;
12912;SDS011;6524;51.368;11.984;2023-06-26T15:50:42;8.77;;;7.90;;
12912;SDS011;6524;51.368;11.984;2023-06-26T15:55:43;9.38;;;8.05;;
12912;SDS011;6524;51.368;11.984;2023-06-26T16:00:43;9.35;;;8.18;;
12912;SDS011;6524;51.368;11.984;2023-06-26T16:05:44;8.10;;;7.40;;
12912;SDS011;6524;51.368;11.984;2023-06-26T16:10:44;8.80;;;7.80;;
12912;SDS011;6524;51.368;11.984;2023-06-26T16:15:45;9.07;;;7.60;;
12912;SDS011;6524;51.368;11.984;2023-06-26T16:20:46;10.43;;;8.48;;
12912;SDS011;6524;51.368;11.984;2023-06-26T16:25:50;10.18;;;8.90;;
12912;SDS011;6524;51.368;11.984;2023-06-26T16:30:50;9.65;;;8.75;;
12912;SDS011;6524;51.368;11.984;2023-06-26T16:35:51;9.13;;;7.47;;
12912;SDS011;6524;51.368;11.984;2023-06-26T16:40:51;7.80;;;6.88;;
12912;SDS011;6524;51.368;11.984;2023-06-26T16:45:52;9.82;;;7.07;;
12912;SDS011;6524;51.368;11.984;2023-06-26T16:50:53;9.50;;;7.10;;
12912;SDS011;6524;51.368;11.984;2023-06-26T16:55:54;11.52;;;6.70;;
12912;SDS011;6524;51.368;11.984;2023-06-26T17:00:54;6.88;;;6.10;;
12912;SDS011;6524;51.368;11.984;2023-06-26T17:05:55;6.28;;;5.68;;
12912;SDS011;6524;51.368;11.984;2023-06-26T17:10:56;5.72;;;4.72;;
12912;SDS011;6524;51.368;11.984;2023-06-26T17:15:56;5.57;;;4.70;;
12912;SDS011;6524;51.368;11.984;2023-06-26T17:20:57;5.50;;;4.72;;
12912;SDS011;6524;51.368;11.984;2023-06-26T17:25:57;5.10;;;4.63;;
12912;SDS011;6524;51.368;11.984;2023-06-26T17:30:58;6.53;;;4.78;;
12912;SDS011;6524;51.368;11.984;2023-06-26T17:35:59;5.07;;;4.57;;
12912;SDS011;6524;51.368;11.984;2023-06-26T17:40:59;5.28;;;4.60;;
12912;SDS011;6524;51.368;11.984;2023-06-26T17:46:00;6.00;;;4.55;;
12912;SDS011;6524;51.368;11.984;2023-06-26T17:51:00;4.75;;;4.13;;
12912;SDS011;6524;51.368;11.984;2023-06-26T17:56:02;4.25;;;3.85;;
12912;SDS011;6524;51.368;11.984;2023-06-26T18:01:03;5.95;;;3.83;;
12912;SDS011;6524;51.368;11.984;2023-06-26T18:06:04;5.57;;;4.22;;
12912;SDS011;6524;51.368;11.984;2023-06-26T18:11:04;4.55;;;4.10;;
12912;SDS011;6524;51.368;11.984;2023-06-26T18:16:05;4.95;;;4.13;;
12912;SDS011;6524;51.368;11.984;2023-06-26T18:21:09;5.07;;;4.20;;
12912;SDS011;6524;51.368;11.984;2023-06-26T18:26:09;5.45;;;4.07;;
12912;SDS011;6524;51.368;11.984;2023-06-26T18:31:10;4.53;;;4.10;;
12912;SDS011;6524;51.368;11.984;2023-06-26T18:36:11;5.63;;;4.63;;
12912;SDS011;6524;51.368;11.984;2023-06-26T18:41:15;5.32;;;3.80;;
12912;SDS011;6524;51.368;11.984;2023-06-26T18:46:15;5.00;;;4.07;;
12912;SDS011;6524;51.368;11.984;2023-06-26T18:51:16;4.60;;;3.83;;
12912;SDS011;6524;51.368;11.984;2023-06-26T18:56:17;4.28;;;3.80;;
12912;SDS011;6524;51.368;11.984;2023-06-26T19:01:18;4.22;;;3.40;;
12912;SDS011;6524;51.368;11.984;2023-06-26T19:06:39;4.85;;;3.60;;
12912;SDS011;6524;51.368;11.984;2023-06-26T19:11:40;5.90;;;3.60;;
12912;SDS011;6524;51.368;11.984;2023-06-26T19:16:40;3.80;;;3.50;;
12912;SDS011;6524;51.368;11.984;2023-06-26T19:21:41;4.13;;;3.22;;
12912;SDS011;6524;51.368;11.984;2023-06-26T19:26:42;4.30;;;3.50;;
12912;SDS011;6524;51.368;11.984;2023-06-26T19:31:43;5.30;;;3.63;;
12912;SDS011;6524;51.368;11.984;2023-06-26T19:36:43;5.93;;;3.55;;
12912;SDS011;6524;51.368;11.984;2023-06-26T20:28:16;5.68;;;3.17;;
12912;SDS011;6524;51.368;11.984;2023-06-26T20:33:16;5.30;;;3.42;;
12912;SDS011;6524;51.368;11.984;2023-06-26T20:38:17;3.80;;;3.00;;
12912;SDS011;6524;51.368;11.984;2023-06-26T20:43:18;5.80;;;3.60;;
12912;SDS011;6524;51.368;11.984;2023-06-26T20:48:19;4.00;;;3.30;;
12912;SDS011;6524;51.368;11.984;2023-06-26T20:53:20;5.13;;;3.20;;
12912;SDS011;6524;51.368;11.984;2023-06-26T20:58:20;3.63;;;3.17;;
12912;SDS011;6524;51.368;11.984;2023-06-26T21:03:21;3.75;;;3.10;;
12912;SDS011;6524;51.368;11.984;2023-06-26T21:08:22;5.07;;;3.03;;
12912;SDS011;6524;51.368;11.984;2023-06-26T21:13:22;5.00;;;3.10;;
12912;SDS011;6524;51.368;11.984;2023-06-26T21:18:23;5.32;;;3.15;;
12912;SDS011;6524;51.368;11.984;2023-06-26T21:23:24;4.45;;;3.17;;
12912;SDS011;6524;51.368;11.984;2023-06-26T21:28:25;4.85;;;3.13;;
12912;SDS011;6524;51.368;11.984;2023-06-26T21:33:26;4.78;;;3.08;;
12912;SDS011;6524;51.368;11.984;2023-06-26T21:38:27;3.42;;;3.13;;
12912;SDS011;6524;51.368;11.984;2023-06-26T21:43:28;5.20;;;3.70;;
12912;SDS011;6524;51.368;11.984;2023-06-26T21:48:29;4.53;;;3.58;;
12912;SDS011;6524;51.368;11.984;2023-06-26T21:53:29;4.90;;;3.17;;
12912;SDS011;6524;51.368;11.984;2023-06-26T21:58:30;5.15;;;3.47;;
12912;SDS011;6524;51.368;11.984;2023-06-26T22:03:30;5.45;;;3.55;;
12912;SDS011;6524;51.368;11.984;2023-06-26T22:08:31;6.32;;;3.55;;
12912;SDS011;6524;51.368;11.984;2023-06-26T22:13:31;5.25;;;3.60;;
12912;SDS011;6524;51.368;11.984;2023-06-26T22:18:32;3.70;;;3.05;;
12912;SDS011;6524;51.368;11.984;2023-06-26T22:23:35;4.20;;;3.28;;
12912;SDS011;6524;51.368;11.984;2023-06-26T22:28:41;5.00;;;3.20;;
12912;SDS011;6524;51.368;11.984;2023-06-26T22:33:46;5.90;;;3.25;;
12912;SDS011;6524;51.368;11.984;2023-06-26T22:38:46;4.13;;;3.05;;
